sensor_id;sensor_type;location;lat;lon;timestamp;P1;durP1;ratioP1;P2;durP2;ratioP2
5412;SDS011;2729;50.056;8.678;2022-11-15T00:01:26;8.93;;;4.33;;
5412;SDS011;2729;50.056;8.678;2022-11-15T00:04:11;7.17;;;4.30;;
5412;SDS011;2729;50.056;8.678;2022-11-15T00:06:55;3.20;;;2.90;;
5412;SDS011;2729;50.056;8.678;2022-11-15T00:09:40;5.40;;;3.90;;
5412;SDS011;2729;50.056;8.678;2022-11-15T00:12:24;5.93;;;3.80;;
5412;SDS011;2729;50.056;8.678;2022-11-15T00:15:09;5.23;;;3.40;;
5412;SDS011;2729;50.056;8.678;2022-11-15T00:17:53;13.77;;;3.93;;
5412;SDS011;2729;50.056;8.678;2022-11-15T00:20:38;6.47;;;3.63;;
5412;SDS011;2729;50.056;8.678;2022-11-15T00:23:22;6.13;;;4.33;;
5412;SDS011;2729;50.056;8.678;2022-11-15T00:26:07;7.77;;;4.20;;
5412;SDS011;2729;50.056;8.678;2022-11-15T00:28:55;11.20;;;4.03;;
5412;SDS011;2729;50.056;8.678;2022-11-15T00:31:39;3.73;;;3.43;;
5412;SDS011;2729;50.056;8.678;2022-11-15T00:34:23;5.03;;;3.70;;
5412;SDS011;2729;50.056;8.678;2022-11-15T00:37:08;5.10;;;4.03;;
5412;SDS011;2729;50.056;8.678;2022-11-15T00:39:52;5.27;;;4.27;;
5412;SDS011;2729;50.056;8.678;2022-11-15T00:42:37;4.07;;;3.67;;
5412;SDS011;2729;50.056;8.678;2022-11-15T00:45:21;4.80;;;4.00;;
5412;SDS011;2729;50.056;8.678;2022-11-15T00:48:06;10.13;;;4.30;;
5412;SDS011;2729;50.056;8.678;2022-11-15T00:50:51;5.93;;;3.83;;
5412;SDS011;2729;50.056;8.678;2022-11-15T00:53:36;3.97;;;3.63;;
5412;SDS011;2729;50.056;8.678;2022-11-15T00:56:20;4.93;;;4.20;;
5412;SDS011;2729;50.056;8.678;2022-11-15T00:59:05;9.77;;;3.83;;
5412;SDS011;2729;50.056;8.678;2022-11-15T01:01:49;4.03;;;3.33;;
5412;SDS011;2729;50.056;8.678;2022-11-15T01:04:34;8.67;;;4.20;;
5412;SDS011;2729;50.056;8.678;2022-11-15T01:07:18;9.70;;;4.20;;
5412;SDS011;2729;50.056;8.678;2022-11-15T01:10:03;4.77;;;3.43;;
5412;SDS011;2729;50.056;8.678;2022-11-15T01:12:48;6.67;;;4.70;;
5412;SDS011;2729;50.056;8.678;2022-11-15T01:15:33;6.13;;;3.60;;
5412;SDS011;2729;50.056;8.678;2022-11-15T01:18:18;6.13;;;3.90;;
5412;SDS011;2729;50.056;8.678;2022-11-15T01:21:06;7.20;;;4.03;;
5412;SDS011;2729;50.056;8.678;2022-11-15T01:23:55;8.37;;;4.07;;
5412;SDS011;2729;50.056;8.678;2022-11-15T01:26:41;4.27;;;3.77;;
5412;SDS011;2729;50.056;8.678;2022-11-15T01:29:25;5.50;;;3.37;;
5412;SDS011;2729;50.056;8.678;2022-11-15T01:32:10;6.37;;;3.30;;
5412;SDS011;2729;50.056;8.678;2022-11-15T01:34:54;6.73;;;3.73;;
5412;SDS011;2729;50.056;8.678;2022-11-15T01:37:39;4.63;;;3.50;;
5412;SDS011;2729;50.056;8.678;2022-11-15T01:40:23;4.90;;;4.23;;
5412;SDS011;2729;50.056;8.678;2022-11-15T01:43:21;5.77;;;3.50;;
5412;SDS011;2729;50.056;8.678;2022-11-15T01:49:11;6.57;;;3.57;;
5412;SDS011;2729;50.056;8.678;2022-11-15T01:51:58;7.57;;;3.87;;
5412;SDS011;2729;50.056;8.678;2022-11-15T01:54:47;3.40;;;3.07;;
5412;SDS011;2729;50.056;8.678;2022-11-15T01:57:34;6.97;;;3.87;;
5412;SDS011;2729;50.056;8.678;2022-11-15T02:00:19;4.47;;;3.60;;
5412;SDS011;2729;50.056;8.678;2022-11-15T02:03:03;5.00;;;3.67;;
5412;SDS011;2729;50.056;8.678;2022-11-15T02:05:48;4.20;;;3.53;;
5412;SDS011;2729;50.056;8.678;2022-11-15T02:08:34;4.67;;;3.93;;
5412;SDS011;2729;50.056;8.678;2022-11-15T02:11:18;9.10;;;4.20;;
5412;SDS011;2729;50.056;8.678;2022-11-15T02:14:03;4.50;;;3.90;;
5412;SDS011;2729;50.056;8.678;2022-11-15T02:17:02;4.47;;;3.63;;
5412;SDS011;2729;50.056;8.678;2022-11-15T02:22:58;5.30;;;3.40;;
5412;SDS011;2729;50.056;8.678;2022-11-15T02:26:24;3.67;;;3.27;;
5412;SDS011;2729;50.056;8.678;2022-11-15T02:29:49;4.47;;;3.57;;
5412;SDS011;2729;50.056;8.678;2022-11-15T02:33:14;5.63;;;3.73;;
5412;SDS011;2729;50.056;8.678;2022-11-15T02:36:26;4.30;;;3.50;;
5412;SDS011;2729;50.056;8.678;2022-11-15T02:42:26;6.43;;;3.80;;
5412;SDS011;2729;50.056;8.678;2022-11-15T02:45:36;5.43;;;3.47;;
5412;SDS011;2729;50.056;8.678;2022-11-15T02:48:24;4.00;;;3.50;;
5412;SDS011;2729;50.056;8.678;2022-11-15T02:51:10;6.20;;;3.47;;
5412;SDS011;2729;50.056;8.678;2022-11-15T02:53:55;7.40;;;3.70;;
5412;SDS011;2729;50.056;8.678;2022-11-15T02:56:40;4.83;;;3.60;;
5412;SDS011;2729;50.056;8.678;2022-11-15T03:06:09;3.57;;;3.27;;
5412;SDS011;2729;50.056;8.678;2022-11-15T03:09:08;3.97;;;3.17;;
5412;SDS011;2729;50.056;8.678;2022-11-15T03:12:03;12.30;;;3.47;;
5412;SDS011;2729;50.056;8.678;2022-11-15T03:15:03;3.00;;;2.80;;
5412;SDS011;2729;50.056;8.678;2022-11-15T03:18:00;4.90;;;3.70;;
5412;SDS011;2729;50.056;8.678;2022-11-15T03:20:48;4.40;;;3.60;;
5412;SDS011;2729;50.056;8.678;2022-11-15T03:23:34;3.17;;;2.87;;
5412;SDS011;2729;50.056;8.678;2022-11-15T03:26:21;6.00;;;3.50;;
5412;SDS011;2729;50.056;8.678;2022-11-15T03:29:10;6.47;;;3.50;;
5412;SDS011;2729;50.056;8.678;2022-11-15T03:31:58;5.37;;;3.37;;
5412;SDS011;2729;50.056;8.678;2022-11-15T03:34:51;2.83;;;2.63;;
5412;SDS011;2729;50.056;8.678;2022-11-15T03:37:44;4.13;;;3.30;;
5412;SDS011;2729;50.056;8.678;2022-11-15T03:40:41;5.57;;;3.60;;
5412;SDS011;2729;50.056;8.678;2022-11-15T03:46:33;4.93;;;3.40;;
5412;SDS011;2729;50.056;8.678;2022-11-15T03:49:27;5.30;;;3.30;;
5412;SDS011;2729;50.056;8.678;2022-11-15T03:52:17;4.10;;;3.37;;
5412;SDS011;2729;50.056;8.678;2022-11-15T03:55:03;3.57;;;3.27;;
5412;SDS011;2729;50.056;8.678;2022-11-15T03:57:55;3.73;;;3.43;;
5412;SDS011;2729;50.056;8.678;2022-11-15T04:00:43;3.93;;;3.33;;
5412;SDS011;2729;50.056;8.678;2022-11-15T04:03:27;3.13;;;2.83;;
5412;SDS011;2729;50.056;8.678;2022-11-15T04:06:12;4.20;;;3.20;;
5412;SDS011;2729;50.056;8.678;2022-11-15T04:08:56;4.10;;;3.50;;
5412;SDS011;2729;50.056;8.678;2022-11-15T04:11:41;3.73;;;2.87;;
5412;SDS011;2729;50.056;8.678;2022-11-15T04:14:25;5.33;;;3.93;;
5412;SDS011;2729;50.056;8.678;2022-11-15T04:17:10;3.03;;;2.80;;
5412;SDS011;2729;50.056;8.678;2022-11-15T04:19:54;4.07;;;3.67;;
5412;SDS011;2729;50.056;8.678;2022-11-15T04:22:58;7.43;;;3.80;;
5412;SDS011;2729;50.056;8.678;2022-11-15T04:29:00;3.40;;;3.10;;
5412;SDS011;2729;50.056;8.678;2022-11-15T04:32:04;6.03;;;3.50;;
5412;SDS011;2729;50.056;8.678;2022-11-15T04:34:50;3.30;;;3.10;;
5412;SDS011;2729;50.056;8.678;2022-11-15T04:37:34;4.63;;;3.33;;
5412;SDS011;2729;50.056;8.678;2022-11-15T04:40:19;4.50;;;3.10;;
5412;SDS011;2729;50.056;8.678;2022-11-15T04:43:03;3.63;;;3.10;;
5412;SDS011;2729;50.056;8.678;2022-11-15T04:45:48;19.13;;;3.23;;
5412;SDS011;2729;50.056;8.678;2022-11-15T04:48:32;4.53;;;2.90;;
5412;SDS011;2729;50.056;8.678;2022-11-15T04:51:17;3.20;;;2.87;;
5412;SDS011;2729;50.056;8.678;2022-11-15T04:54:02;4.20;;;3.20;;
5412;SDS011;2729;50.056;8.678;2022-11-15T04:56:46;5.70;;;3.43;;
5412;SDS011;2729;50.056;8.678;2022-11-15T04:59:31;4.93;;;3.03;;
5412;SDS011;2729;50.056;8.678;2022-11-15T05:02:15;5.20;;;3.70;;
5412;SDS011;2729;50.056;8.678;2022-11-15T05:05:00;5.47;;;3.33;;
5412;SDS011;2729;50.056;8.678;2022-11-15T05:07:44;4.33;;;3.43;;
5412;SDS011;2729;50.056;8.678;2022-11-15T05:10:29;4.77;;;3.67;;
5412;SDS011;2729;50.056;8.678;2022-11-15T05:13:13;4.87;;;3.57;;
5412;SDS011;2729;50.056;8.678;2022-11-15T05:15:57;6.70;;;3.90;;
5412;SDS011;2729;50.056;8.678;2022-11-15T05:18:42;4.77;;;3.10;;
5412;SDS011;2729;50.056;8.678;2022-11-15T05:21:26;4.40;;;3.60;;
5412;SDS011;2729;50.056;8.678;2022-11-15T05:24:11;4.50;;;3.47;;
5412;SDS011;2729;50.056;8.678;2022-11-15T05:26:55;11.13;;;3.60;;
5412;SDS011;2729;50.056;8.678;2022-11-15T05:29:39;7.33;;;4.23;;
5412;SDS011;2729;50.056;8.678;2022-11-15T05:32:24;6.47;;;4.43;;
5412;SDS011;2729;50.056;8.678;2022-11-15T05:35:09;4.43;;;3.27;;
5412;SDS011;2729;50.056;8.678;2022-11-15T05:37:58;8.70;;;3.57;;
5412;SDS011;2729;50.056;8.678;2022-11-15T05:40:42;5.20;;;3.37;;
5412;SDS011;2729;50.056;8.678;2022-11-15T05:43:27;9.33;;;3.60;;
5412;SDS011;2729;50.056;8.678;2022-11-15T05:46:12;4.37;;;3.80;;
5412;SDS011;2729;50.056;8.678;2022-11-15T05:48:57;5.53;;;3.80;;
5412;SDS011;2729;50.056;8.678;2022-11-15T05:51:42;3.93;;;3.43;;
5412;SDS011;2729;50.056;8.678;2022-11-15T05:54:28;4.40;;;3.47;;
5412;SDS011;2729;50.056;8.678;2022-11-15T05:57:12;5.60;;;3.30;;
5412;SDS011;2729;50.056;8.678;2022-11-15T06:00:05;7.30;;;4.10;;
5412;SDS011;2729;50.056;8.678;2022-11-15T06:02:52;6.23;;;3.40;;
5412;SDS011;2729;50.056;8.678;2022-11-15T06:05:36;7.17;;;3.70;;
5412;SDS011;2729;50.056;8.678;2022-11-15T06:08:21;4.60;;;3.33;;
5412;SDS011;2729;50.056;8.678;2022-11-15T06:11:05;5.70;;;3.83;;
5412;SDS011;2729;50.056;8.678;2022-11-15T06:13:50;3.33;;;3.03;;
5412;SDS011;2729;50.056;8.678;2022-11-15T06:16:35;4.97;;;4.03;;
5412;SDS011;2729;50.056;8.678;2022-11-15T06:19:19;5.10;;;4.30;;
5412;SDS011;2729;50.056;8.678;2022-11-15T06:22:03;4.17;;;3.60;;
5412;SDS011;2729;50.056;8.678;2022-11-15T06:24:48;3.70;;;3.40;;
5412;SDS011;2729;50.056;8.678;2022-11-15T06:27:32;6.07;;;3.73;;
5412;SDS011;2729;50.056;8.678;2022-11-15T06:30:17;6.23;;;3.10;;
5412;SDS011;2729;50.056;8.678;2022-11-15T06:33:02;6.23;;;4.13;;
5412;SDS011;2729;50.056;8.678;2022-11-15T06:35:48;5.63;;;3.43;;
5412;SDS011;2729;50.056;8.678;2022-11-15T06:38:32;5.20;;;3.60;;
5412;SDS011;2729;50.056;8.678;2022-11-15T06:41:17;4.23;;;3.50;;
5412;SDS011;2729;50.056;8.678;2022-11-15T06:44:02;8.33;;;3.57;;
5412;SDS011;2729;50.056;8.678;2022-11-15T06:46:47;5.03;;;3.77;;
5412;SDS011;2729;50.056;8.678;2022-11-15T06:49:31;5.07;;;3.50;;
5412;SDS011;2729;50.056;8.678;2022-11-15T06:52:15;7.10;;;3.53;;
5412;SDS011;2729;50.056;8.678;2022-11-15T06:55:02;5.50;;;3.73;;
5412;SDS011;2729;50.056;8.678;2022-11-15T06:57:47;4.00;;;3.60;;
5412;SDS011;2729;50.056;8.678;2022-11-15T07:00:36;5.23;;;3.70;;
5412;SDS011;2729;50.056;8.678;2022-11-15T07:03:20;7.37;;;4.17;;
5412;SDS011;2729;50.056;8.678;2022-11-15T07:06:05;7.07;;;4.63;;
5412;SDS011;2729;50.056;8.678;2022-11-15T07:08:50;8.60;;;4.90;;
5412;SDS011;2729;50.056;8.678;2022-11-15T07:11:35;5.80;;;4.23;;
5412;SDS011;2729;50.056;8.678;2022-11-15T07:14:19;8.63;;;4.10;;
5412;SDS011;2729;50.056;8.678;2022-11-15T07:17:04;6.17;;;3.93;;
5412;SDS011;2729;50.056;8.678;2022-11-15T07:19:49;5.93;;;3.53;;
5412;SDS011;2729;50.056;8.678;2022-11-15T07:22:33;4.80;;;3.47;;
5412;SDS011;2729;50.056;8.678;2022-11-15T07:25:18;7.60;;;3.70;;
5412;SDS011;2729;50.056;8.678;2022-11-15T07:28:02;22.07;;;3.50;;
5412;SDS011;2729;50.056;8.678;2022-11-15T07:30:47;5.53;;;3.33;;
5412;SDS011;2729;50.056;8.678;2022-11-15T07:33:32;16.67;;;3.97;;
5412;SDS011;2729;50.056;8.678;2022-11-15T07:36:16;4.93;;;2.90;;
5412;SDS011;2729;50.056;8.678;2022-11-15T07:39:00;4.57;;;3.60;;
5412;SDS011;2729;50.056;8.678;2022-11-15T07:41:45;4.77;;;3.50;;
5412;SDS011;2729;50.056;8.678;2022-11-15T07:44:32;4.50;;;3.63;;
5412;SDS011;2729;50.056;8.678;2022-11-15T07:47:16;5.70;;;4.33;;
5412;SDS011;2729;50.056;8.678;2022-11-15T07:50:01;4.27;;;3.53;;
5412;SDS011;2729;50.056;8.678;2022-11-15T07:52:45;4.77;;;3.77;;
5412;SDS011;2729;50.056;8.678;2022-11-15T07:55:30;8.03;;;4.07;;
5412;SDS011;2729;50.056;8.678;2022-11-15T07:58:14;8.00;;;3.20;;
5412;SDS011;2729;50.056;8.678;2022-11-15T08:01:02;12.17;;;4.10;;
5412;SDS011;2729;50.056;8.678;2022-11-15T08:03:48;4.90;;;3.90;;
5412;SDS011;2729;50.056;8.678;2022-11-15T08:06:32;4.77;;;3.67;;
5412;SDS011;2729;50.056;8.678;2022-11-15T08:09:17;6.73;;;3.33;;
5412;SDS011;2729;50.056;8.678;2022-11-15T08:12:01;4.57;;;3.60;;
5412;SDS011;2729;50.056;8.678;2022-11-15T08:14:46;4.87;;;3.13;;
5412;SDS011;2729;50.056;8.678;2022-11-15T08:17:30;6.93;;;3.63;;
5412;SDS011;2729;50.056;8.678;2022-11-15T08:20:16;10.00;;;4.00;;
5412;SDS011;2729;50.056;8.678;2022-11-15T08:23:01;8.17;;;4.00;;
5412;SDS011;2729;50.056;8.678;2022-11-15T08:25:47;6.20;;;4.20;;
5412;SDS011;2729;50.056;8.678;2022-11-15T08:28:31;4.50;;;3.70;;
5412;SDS011;2729;50.056;8.678;2022-11-15T08:31:17;8.90;;;3.63;;
5412;SDS011;2729;50.056;8.678;2022-11-15T08:34:03;3.83;;;3.23;;
5412;SDS011;2729;50.056;8.678;2022-11-15T08:36:48;4.93;;;3.63;;
5412;SDS011;2729;50.056;8.678;2022-11-15T08:39:32;5.90;;;3.63;;
5412;SDS011;2729;50.056;8.678;2022-11-15T08:42:17;6.73;;;4.10;;
5412;SDS011;2729;50.056;8.678;2022-11-15T08:45:02;4.17;;;3.47;;
5412;SDS011;2729;50.056;8.678;2022-11-15T08:47:47;4.07;;;3.47;;
5412;SDS011;2729;50.056;8.678;2022-11-15T08:50:31;5.47;;;3.40;;
5412;SDS011;2729;50.056;8.678;2022-11-15T08:53:16;9.53;;;3.30;;
5412;SDS011;2729;50.056;8.678;2022-11-15T08:56:01;3.97;;;3.47;;
5412;SDS011;2729;50.056;8.678;2022-11-15T08:58:45;6.43;;;3.40;;
5412;SDS011;2729;50.056;8.678;2022-11-15T09:01:31;4.13;;;3.60;;
5412;SDS011;2729;50.056;8.678;2022-11-15T09:04:16;3.30;;;3.00;;
5412;SDS011;2729;50.056;8.678;2022-11-15T09:07:01;4.30;;;3.20;;
5412;SDS011;2729;50.056;8.678;2022-11-15T09:09:45;9.00;;;3.40;;
5412;SDS011;2729;50.056;8.678;2022-11-15T09:12:29;5.63;;;3.90;;
5412;SDS011;2729;50.056;8.678;2022-11-15T09:15:15;5.30;;;3.47;;
5412;SDS011;2729;50.056;8.678;2022-11-15T09:18:00;7.77;;;4.00;;
5412;SDS011;2729;50.056;8.678;2022-11-15T09:20:44;5.00;;;3.30;;
5412;SDS011;2729;50.056;8.678;2022-11-15T09:23:29;6.03;;;3.80;;
5412;SDS011;2729;50.056;8.678;2022-11-15T09:26:13;6.80;;;3.50;;
5412;SDS011;2729;50.056;8.678;2022-11-15T09:28:58;9.17;;;4.63;;
5412;SDS011;2729;50.056;8.678;2022-11-15T09:31:42;8.00;;;4.03;;
5412;SDS011;2729;50.056;8.678;2022-11-15T09:34:27;7.97;;;3.73;;
5412;SDS011;2729;50.056;8.678;2022-11-15T09:37:11;5.23;;;3.53;;
5412;SDS011;2729;50.056;8.678;2022-11-15T09:39:56;3.90;;;3.57;;
5412;SDS011;2729;50.056;8.678;2022-11-15T09:46:11;8.03;;;3.40;;
5412;SDS011;2729;50.056;8.678;2022-11-15T09:49:18;8.17;;;4.00;;
5412;SDS011;2729;50.056;8.678;2022-11-15T09:52:07;3.67;;;2.80;;
5412;SDS011;2729;50.056;8.678;2022-11-15T09:54:36;3.90;;;3.10;;
5412;SDS011;2729;50.056;8.678;2022-11-15T09:57:26;4.30;;;3.37;;
5412;SDS011;2729;50.056;8.678;2022-11-15T10:00:27;3.93;;;3.13;;
5412;SDS011;2729;50.056;8.678;2022-11-15T10:03:35;3.73;;;3.20;;
5412;SDS011;2729;50.056;8.678;2022-11-15T10:05:59;5.50;;;3.90;;
5412;SDS011;2729;50.056;8.678;2022-11-15T10:08:31;4.53;;;3.30;;
5412;SDS011;2729;50.056;8.678;2022-11-15T10:11:07;3.60;;;3.30;;
5412;SDS011;2729;50.056;8.678;2022-11-15T10:13:36;5.40;;;3.23;;
5412;SDS011;2729;50.056;8.678;2022-11-15T10:16:12;6.23;;;3.40;;
5412;SDS011;2729;50.056;8.678;2022-11-15T10:24:18;3.30;;;3.00;;
5412;SDS011;2729;50.056;8.678;2022-11-15T10:26:49;4.00;;;3.50;;
5412;SDS011;2729;50.056;8.678;2022-11-15T10:29:17;4.30;;;2.80;;
5412;SDS011;2729;50.056;8.678;2022-11-15T10:31:47;3.40;;;3.10;;
5412;SDS011;2729;50.056;8.678;2022-11-15T10:34:21;8.80;;;3.20;;
5412;SDS011;2729;50.056;8.678;2022-11-15T10:36:55;4.97;;;3.53;;
5412;SDS011;2729;50.056;8.678;2022-11-15T10:39:27;3.83;;;3.20;;
5412;SDS011;2729;50.056;8.678;2022-11-15T10:41:53;4.97;;;3.23;;
5412;SDS011;2729;50.056;8.678;2022-11-15T10:44:24;8.13;;;3.33;;
5412;SDS011;2729;50.056;8.678;2022-11-15T10:49:24;7.20;;;4.80;;
5412;SDS011;2729;50.056;8.678;2022-11-15T10:54:28;3.93;;;3.37;;
5412;SDS011;2729;50.056;8.678;2022-11-15T10:56:58;4.00;;;3.10;;
5412;SDS011;2729;50.056;8.678;2022-11-15T10:59:32;3.17;;;2.87;;
5412;SDS011;2729;50.056;8.678;2022-11-15T11:02:02;3.23;;;2.90;;
5412;SDS011;2729;50.056;8.678;2022-11-15T11:04:28;5.10;;;3.20;;
5412;SDS011;2729;50.056;8.678;2022-11-15T11:06:55;6.27;;;3.50;;
5412;SDS011;2729;50.056;8.678;2022-11-15T11:09:31;3.50;;;3.20;;
5412;SDS011;2729;50.056;8.678;2022-11-15T11:12:02;6.77;;;3.30;;
5412;SDS011;2729;50.056;8.678;2022-11-15T11:14:30;3.90;;;3.53;;
5412;SDS011;2729;50.056;8.678;2022-11-15T11:22:27;4.40;;;3.30;;
5412;SDS011;2729;50.056;8.678;2022-11-15T11:30:42;3.23;;;2.87;;
5412;SDS011;2729;50.056;8.678;2022-11-15T11:36:10;6.07;;;3.43;;
5412;SDS011;2729;50.056;8.678;2022-11-15T11:38:57;2.57;;;2.37;;
5412;SDS011;2729;50.056;8.678;2022-11-15T11:44:05;2.90;;;2.70;;
5412;SDS011;2729;50.056;8.678;2022-11-15T11:49:42;2.50;;;2.40;;
5412;SDS011;2729;50.056;8.678;2022-11-15T11:52:22;3.93;;;2.67;;
5412;SDS011;2729;50.056;8.678;2022-11-15T12:00:52;2.93;;;2.20;;
5412;SDS011;2729;50.056;8.678;2022-11-15T12:03:24;3.10;;;2.80;;
5412;SDS011;2729;50.056;8.678;2022-11-15T12:06:02;3.83;;;2.67;;
5412;SDS011;2729;50.056;8.678;2022-11-15T12:08:43;5.07;;;2.43;;
5412;SDS011;2729;50.056;8.678;2022-11-15T12:11:17;4.97;;;2.50;;
5412;SDS011;2729;50.056;8.678;2022-11-15T12:13:49;2.83;;;2.60;;
5412;SDS011;2729;50.056;8.678;2022-11-15T12:16:23;2.60;;;2.40;;
5412;SDS011;2729;50.056;8.678;2022-11-15T12:18:53;3.80;;;2.50;;
5412;SDS011;2729;50.056;8.678;2022-11-15T12:23:59;2.70;;;2.50;;
5412;SDS011;2729;50.056;8.678;2022-11-15T12:26:35;4.80;;;2.60;;
5412;SDS011;2729;50.056;8.678;2022-11-15T12:29:11;2.43;;;2.23;;
5412;SDS011;2729;50.056;8.678;2022-11-15T12:31:45;3.00;;;2.40;;
5412;SDS011;2729;50.056;8.678;2022-11-15T12:36:48;2.80;;;2.60;;
5412;SDS011;2729;50.056;8.678;2022-11-15T12:39:16;2.60;;;2.10;;
5412;SDS011;2729;50.056;8.678;2022-11-15T12:41:44;2.53;;;2.33;;
5412;SDS011;2729;50.056;8.678;2022-11-15T13:04:55;2.57;;;2.30;;
5412;SDS011;2729;50.056;8.678;2022-11-15T13:20:22;1.70;;;1.40;;
5412;SDS011;2729;50.056;8.678;2022-11-15T13:27:58;1.70;;;1.50;;
5412;SDS011;2729;50.056;8.678;2022-11-15T13:30:27;1.50;;;1.40;;
5412;SDS011;2729;50.056;8.678;2022-11-15T13:32:56;1.67;;;1.57;;
5412;SDS011;2729;50.056;8.678;2022-11-15T13:35:27;1.40;;;1.30;;
5412;SDS011;2729;50.056;8.678;2022-11-15T13:37:56;2.10;;;1.43;;
5412;SDS011;2729;50.056;8.678;2022-11-15T13:40:29;1.40;;;1.30;;
5412;SDS011;2729;50.056;8.678;2022-11-15T13:43:13;1.30;;;1.20;;
5412;SDS011;2729;50.056;8.678;2022-11-15T13:48:35;1.40;;;1.40;;
5412;SDS011;2729;50.056;8.678;2022-11-15T13:51:05;1.23;;;1.20;;
5412;SDS011;2729;50.056;8.678;2022-11-15T13:53:36;1.20;;;1.20;;
5412;SDS011;2729;50.056;8.678;2022-11-15T13:56:07;1.43;;;1.43;;
5412;SDS011;2729;50.056;8.678;2022-11-15T13:58:33;1.30;;;1.30;;
5412;SDS011;2729;50.056;8.678;2022-11-15T14:01:03;1.37;;;1.27;;
5412;SDS011;2729;50.056;8.678;2022-11-15T14:03:34;1.33;;;1.23;;
5412;SDS011;2729;50.056;8.678;2022-11-15T14:06:13;2.03;;;1.90;;
5412;SDS011;2729;50.056;8.678;2022-11-15T14:09:03;2.50;;;1.60;;
5412;SDS011;2729;50.056;8.678;2022-11-15T14:11:35;1.43;;;1.43;;
5412;SDS011;2729;50.056;8.678;2022-11-15T14:16:34;1.67;;;1.13;;
5412;SDS011;2729;50.056;8.678;2022-11-15T14:19:33;1.57;;;1.47;;
5412;SDS011;2729;50.056;8.678;2022-11-15T14:22:07;2.03;;;1.30;;
5412;SDS011;2729;50.056;8.678;2022-11-15T14:24:47;7.63;;;1.43;;
5412;SDS011;2729;50.056;8.678;2022-11-15T14:30:38;5.37;;;1.60;;
5412;SDS011;2729;50.056;8.678;2022-11-15T14:33:17;1.40;;;1.30;;
5412;SDS011;2729;50.056;8.678;2022-11-15T14:36:10;1.70;;;1.60;;
5412;SDS011;2729;50.056;8.678;2022-11-15T14:38:38;1.70;;;1.60;;
5412;SDS011;2729;50.056;8.678;2022-11-15T14:41:04;1.67;;;1.57;;
5412;SDS011;2729;50.056;8.678;2022-11-15T14:43:31;4.03;;;1.93;;
5412;SDS011;2729;50.056;8.678;2022-11-15T14:45:57;2.10;;;1.90;;
5412;SDS011;2729;50.056;8.678;2022-11-15T14:48:23;1.60;;;1.50;;
5412;SDS011;2729;50.056;8.678;2022-11-15T14:50:49;2.77;;;1.80;;
5412;SDS011;2729;50.056;8.678;2022-11-15T14:53:16;6.70;;;2.40;;
5412;SDS011;2729;50.056;8.678;2022-11-15T14:55:43;4.33;;;1.63;;
5412;SDS011;2729;50.056;8.678;2022-11-15T14:58:09;3.07;;;2.30;;
5412;SDS011;2729;50.056;8.678;2022-11-15T15:00:37;1.90;;;1.80;;
5412;SDS011;2729;50.056;8.678;2022-11-15T15:03:04;3.73;;;1.80;;
5412;SDS011;2729;50.056;8.678;2022-11-15T15:05:32;4.80;;;2.47;;
5412;SDS011;2729;50.056;8.678;2022-11-15T15:08:03;8.70;;;2.77;;
5412;SDS011;2729;50.056;8.678;2022-11-15T15:10:33;3.33;;;2.90;;
5412;SDS011;2729;50.056;8.678;2022-11-15T15:13:02;3.33;;;2.87;;
5412;SDS011;2729;50.056;8.678;2022-11-15T15:15:33;4.27;;;3.03;;
5412;SDS011;2729;50.056;8.678;2022-11-15T15:18:01;3.10;;;2.43;;
5412;SDS011;2729;50.056;8.678;2022-11-15T15:20:27;3.07;;;2.60;;
5412;SDS011;2729;50.056;8.678;2022-11-15T15:22:54;2.37;;;2.17;;
5412;SDS011;2729;50.056;8.678;2022-11-15T15:25:21;2.80;;;2.60;;
5412;SDS011;2729;50.056;8.678;2022-11-15T15:27:52;4.57;;;2.40;;
5412;SDS011;2729;50.056;8.678;2022-11-15T15:30:20;2.83;;;2.40;;
5412;SDS011;2729;50.056;8.678;2022-11-15T15:32:46;3.30;;;2.40;;
5412;SDS011;2729;50.056;8.678;2022-11-15T15:35:13;2.97;;;2.67;;
5412;SDS011;2729;50.056;8.678;2022-11-15T15:37:40;2.40;;;2.13;;
5412;SDS011;2729;50.056;8.678;2022-11-15T15:40:18;2.17;;;2.07;;
5412;SDS011;2729;50.056;8.678;2022-11-15T15:42:47;2.83;;;2.10;;
5412;SDS011;2729;50.056;8.678;2022-11-15T15:45:14;2.57;;;1.90;;
5412;SDS011;2729;50.056;8.678;2022-11-15T15:47:41;6.13;;;2.67;;
5412;SDS011;2729;50.056;8.678;2022-11-15T15:50:16;3.80;;;2.53;;
5412;SDS011;2729;50.056;8.678;2022-11-15T15:52:48;4.10;;;2.03;;
5412;SDS011;2729;50.056;8.678;2022-11-15T15:55:15;3.20;;;2.50;;
5412;SDS011;2729;50.056;8.678;2022-11-15T15:57:41;2.23;;;2.03;;
5412;SDS011;2729;50.056;8.678;2022-11-15T16:00:08;3.27;;;2.60;;
5412;SDS011;2729;50.056;8.678;2022-11-15T16:02:38;8.17;;;1.87;;
5412;SDS011;2729;50.056;8.678;2022-11-15T16:05:05;1.73;;;1.63;;
5412;SDS011;2729;50.056;8.678;2022-11-15T16:07:32;2.70;;;2.33;;
5412;SDS011;2729;50.056;8.678;2022-11-15T16:09:58;2.30;;;2.10;;
5412;SDS011;2729;50.056;8.678;2022-11-15T16:12:30;2.80;;;2.33;;
5412;SDS011;2729;50.056;8.678;2022-11-15T16:14:57;2.17;;;1.97;;
5412;SDS011;2729;50.056;8.678;2022-11-15T16:17:25;9.13;;;2.00;;
5412;SDS011;2729;50.056;8.678;2022-11-15T16:19:52;6.33;;;2.17;;
5412;SDS011;2729;50.056;8.678;2022-11-15T16:22:18;2.60;;;2.33;;
5412;SDS011;2729;50.056;8.678;2022-11-15T16:24:44;6.83;;;2.40;;
5412;SDS011;2729;50.056;8.678;2022-11-15T16:27:14;3.00;;;2.30;;
5412;SDS011;2729;50.056;8.678;2022-11-15T16:29:41;2.77;;;2.57;;
5412;SDS011;2729;50.056;8.678;2022-11-15T16:32:07;2.33;;;2.13;;
5412;SDS011;2729;50.056;8.678;2022-11-15T16:34:33;4.07;;;2.50;;
5412;SDS011;2729;50.056;8.678;2022-11-15T16:36:59;2.70;;;2.50;;
5412;SDS011;2729;50.056;8.678;2022-11-15T16:39:25;4.70;;;3.20;;
5412;SDS011;2729;50.056;8.678;2022-11-15T16:41:53;3.50;;;3.20;;
5412;SDS011;2729;50.056;8.678;2022-11-15T16:44:19;3.20;;;3.00;;
5412;SDS011;2729;50.056;8.678;2022-11-15T16:46:45;4.63;;;2.63;;
5412;SDS011;2729;50.056;8.678;2022-11-15T16:49:16;5.30;;;2.93;;
5412;SDS011;2729;50.056;8.678;2022-11-15T16:51:44;4.40;;;2.83;;
5412;SDS011;2729;50.056;8.678;2022-11-15T16:54:11;4.23;;;3.00;;
5412;SDS011;2729;50.056;8.678;2022-11-15T16:56:38;3.47;;;2.90;;
5412;SDS011;2729;50.056;8.678;2022-11-15T16:59:04;4.57;;;3.50;;
5412;SDS011;2729;50.056;8.678;2022-11-15T17:01:32;6.20;;;3.60;;
5412;SDS011;2729;50.056;8.678;2022-11-15T17:04:00;5.93;;;3.10;;
5412;SDS011;2729;50.056;8.678;2022-11-15T17:06:41;2.47;;;2.27;;
5412;SDS011;2729;50.056;8.678;2022-11-15T17:09:12;4.20;;;2.33;;
5412;SDS011;2729;50.056;8.678;2022-11-15T17:11:40;2.50;;;2.30;;
5412;SDS011;2729;50.056;8.678;2022-11-15T17:14:06;1.90;;;1.80;;
5412;SDS011;2729;50.056;8.678;2022-11-15T17:16:32;5.37;;;2.87;;
5412;SDS011;2729;50.056;8.678;2022-11-15T17:19:00;2.83;;;2.53;;
5412;SDS011;2729;50.056;8.678;2022-11-15T17:21:26;2.47;;;2.27;;
5412;SDS011;2729;50.056;8.678;2022-11-15T17:23:53;3.03;;;2.67;;
5412;SDS011;2729;50.056;8.678;2022-11-15T17:26:19;5.53;;;2.80;;
5412;SDS011;2729;50.056;8.678;2022-11-15T17:28:45;2.83;;;2.53;;
5412;SDS011;2729;50.056;8.678;2022-11-15T17:31:11;2.53;;;2.33;;
5412;SDS011;2729;50.056;8.678;2022-11-15T17:33:39;2.77;;;2.20;;
5412;SDS011;2729;50.056;8.678;2022-11-15T17:36:07;4.07;;;2.70;;
5412;SDS011;2729;50.056;8.678;2022-11-15T17:38:35;5.80;;;2.83;;
5412;SDS011;2729;50.056;8.678;2022-11-15T17:41:04;2.70;;;2.50;;
5412;SDS011;2729;50.056;8.678;2022-11-15T17:43:37;4.97;;;3.13;;
5412;SDS011;2729;50.056;8.678;2022-11-15T17:46:04;2.60;;;2.30;;
5412;SDS011;2729;50.056;8.678;2022-11-15T17:48:32;3.33;;;2.93;;
5412;SDS011;2729;50.056;8.678;2022-11-15T17:50:59;2.90;;;2.20;;
5412;SDS011;2729;50.056;8.678;2022-11-15T17:53:30;3.47;;;2.43;;
5412;SDS011;2729;50.056;8.678;2022-11-15T17:56:03;2.57;;;2.37;;
5412;SDS011;2729;50.056;8.678;2022-11-15T17:58:31;2.83;;;2.57;;
5412;SDS011;2729;50.056;8.678;2022-11-15T18:01:08;3.43;;;2.80;;
5412;SDS011;2729;50.056;8.678;2022-11-15T18:03:46;3.87;;;2.97;;
5412;SDS011;2729;50.056;8.678;2022-11-15T18:06:13;5.03;;;3.10;;
5412;SDS011;2729;50.056;8.678;2022-11-15T18:08:40;10.77;;;5.87;;
5412;SDS011;2729;50.056;8.678;2022-11-15T18:11:09;10.63;;;5.20;;
5412;SDS011;2729;50.056;8.678;2022-11-15T18:13:38;8.20;;;4.50;;
5412;SDS011;2729;50.056;8.678;2022-11-15T18:16:08;5.80;;;4.10;;
5412;SDS011;2729;50.056;8.678;2022-11-15T18:18:36;7.23;;;4.30;;
5412;SDS011;2729;50.056;8.678;2022-11-15T18:23:41;10.23;;;4.63;;
5412;SDS011;2729;50.056;8.678;2022-11-15T18:26:09;7.50;;;4.80;;
5412;SDS011;2729;50.056;8.678;2022-11-15T18:28:39;7.73;;;4.07;;